Latest Weather Observations for Richmond

IDQ60801

Issued at 2:01 pm EST Wednesday 5 August 2015 (issued every 30 minutes, with the page automatically refreshed every 10 minutes)

About weather observations | Map of weather stations | Latest weather observations for QLD | Other Formats
Station Details ID: 030161 Name: RICHMOND AIRPORT Lat: -20.70 Lon: 143.12 Height: 206.3 m
Data from the previous 72 hours. | See also: Recent months at Richmond
Date/Time
EST
Temp
°C
App
Temp
°C
Dew
Point
Rel
Hum
%
Delta-T
°C
Wind Press
QNH
hPa
Press
MSL
hPa
Rain
since 9 am
mm
Dir
 
Spd
km/h
Gust
km/h
Spd
kts
Gust
kts
05/02:00pm 22.5 15.4 -4.5 16 11.3 SE 24 33 13 18 1018.3 1017.8 0.0
05/01:30pm 21.7 14.1 -5.2 16 11.0 SE 26 37 14 20 1018.8 1018.3 0.0
05/01:00pm 21.5 13.6 -4.5 17 10.7 SE 28 39 15 21 1019.4 1018.9 0.0
05/12:30pm 21.0 13.2 -3.5 19 10.3 ESE 28 39 15 21 1020.2 1019.6 0.0
05/12:00pm 19.9 11.4 -3.0 21 9.6 ESE 32 39 17 21 1020.6 1020.0 0.0
05/11:30am 19.7 11.4 -2.0 23 9.3 ESE 32 43 17 23 1021.1 1020.5 0.0
05/11:00am 18.7 10.2 -1.7 25 8.7 ESE 33 46 18 25 1021.6 1021.0 0.0
05/10:30am 18.1 9.3 -1.2 27 8.3 ESE 35 48 19 26 1022.2 1021.7 0.0
05/10:03am 16.2 7.8 -2.3 28 7.6 ESE 32 50 17 27 1022.5 1022.0 0.0
05/10:00am 16.4 8.0 -2.1 28 7.6 ESE 32 43 17 23 1022.5 1022.0 0.0
05/09:30am 15.3 7.7 -2.2 30 7.1 ESE 28 35 15 19 1022.3 1021.8 0.0
05/09:00am 12.7 5.7 -3.5 32 6.2 ESE 24 32 13 17 1022.1 1021.5 0.0
05/08:30am 11.2 3.4 -3.7 35 5.6 ESE 28 33 15 18 1021.9 1021.3 0.0
05/08:00am 8.7 3.3 -4.8 38 4.8 ESE 15 19 8 10 1021.8 1021.2 0.0
05/07:30am 5.4 0.9 -6.8 41 4.0 SE 9 9 5 5 1021.6 1021.0 0.0
05/07:00am 6.3 0.8 -5.6 42 4.0 SE 15 17 8 9 1021.4 1020.8 0.0
05/06:30am 6.4 1.2 -6.2 40 4.2 SE 13 17 7 9 1021.0 1020.4 0.0
05/06:00am 7.4 2.2 -6.0 38 4.6 ESE 13 17 7 9 1020.8 1020.2 0.0
05/05:30am 8.4 2.1 -5.8 36 4.9 SE 19 24 10 13 1020.4 1019.8 0.0
05/05:00am 9.0 2.2 -5.6 35 5.1 SE 22 28 12 15 1020.0 1019.4 0.0
05/04:30am 9.3 2.4 -5.7 34 5.3 SE 22 28 12 15 1019.8 1019.2 0.0
05/04:00am 9.5 3.2 -5.6 34 5.3 SE 19 24 10 13 1019.7 1019.1 0.0
05/03:30am 9.6 3.1 -5.9 33 5.5 SSE 20 24 11 13 1019.8 1019.2 0.0
05/03:00am 10.1 3.6 -6.2 31 5.7 SSE 20 28 11 15 1019.8 1019.2 0.0
05/02:30am 10.3 3.7 -6.5 30 5.9 SE 20 24 11 13 1019.9 1019.3 0.0
05/02:00am 10.6 4.0 -6.7 29 6.0 SE 20 24 11 13 1020.0 1019.4 0.0
05/01:30am 10.9 4.4 -6.4 29 6.1 SSE 20 24 11 13 1020.0 1019.4 0.0
05/01:00am 11.2 4.2 -7.1 27 6.4 SSE 22 28 12 15 1020.0 1019.4 0.0
05/12:30am 12.0 4.3 -6.9 26 6.7 SSE 26 30 14 16 1020.1 1019.5 0.0
05/12:00am 12.6 4.9 -6.9 25 6.9 SSE 26 32 14 17 1020.3 1019.7 0.0
 
Date/Time
EST
Temp
°C
App
Temp
°C
Dew
Point
Rel
Hum
%
Delta-T
°C
Wind Press
QNH
hPa
Press
MSL
hPa
Rain
since 9 am
mm
Dir
 
Spd
km/h
Gust
km/h
Spd
kts
Gust
kts
04/11:30pm 12.3 5.3 -7.1 25 6.9 SSE 22 28 12 15 1020.4 1019.8 0.0
04/11:00pm 10.6 4.2 -7.1 28 6.1 SSE 19 20 10 11 1020.4 1019.8 0.0
04/10:30pm 9.9 4.1 -8.2 27 6.1 SSE 15 17 8 9 1020.4 1019.8 0.0
04/10:00pm 10.7 4.6 -8.0 26 6.3 SSE 17 19 9 10 1020.3 1019.7 0.0
04/09:30pm 12.1 6.0 -7.8 24 6.9 SSE 17 19 9 10 1020.1 1019.5 0.0
04/09:00pm 13.4 7.0 -7.3 23 7.4 SSE 19 22 10 12 1020.0 1019.4 0.0
04/08:30pm 14.2 7.8 -7.2 22 7.7 SSE 19 20 10 11 1019.7 1019.1 0.0
04/08:00pm 15.3 8.7 -6.9 21 8.2 SSE 20 22 11 12 1019.2 1018.7 0.0
04/07:30pm 16.5 10.1 -6.5 20 8.7 SSE 19 20 10 11 1019.0 1018.5 0.0
04/07:00pm 17.8 11.3 -6.1 19 9.2 SSE 20 24 11 13 1018.6 1018.1 0.0
04/06:30pm 19.6 12.3 -6.1 17 10.1 S 24 30 13 16 1018.3 1017.8 0.0
04/06:00pm 21.1 13.1 -5.7 16 10.8 SSE 28 35 15 19 1018.3 1017.8 0.0
04/05:30pm 22.3 13.4 -5.6 15 11.4 SSE 33 41 18 22 1018.1 1017.6 0.0
04/05:00pm 23.1 14.9 -4.1 16 11.5 SSE 30 39 16 21 1017.9 1017.3 0.0
04/04:30pm 23.7 15.5 -4.4 15 11.9 SSE 30 43 16 23 1017.7 1017.1 0.0
04/04:00pm 23.7 15.5 -3.6 16 11.7 SSE 30 41 16 22 1017.6 1017.0 0.0
04/03:30pm 24.4 16.4 -2.2 17 11.8 S 30 39 16 21 1017.8 1017.2 0.0
04/03:00pm 24.0 16.6 -1.0 19 11.3 S 28 41 15 22 1018.1 1017.6 0.0
04/02:30pm 24.2 16.8 -0.9 19 11.4 SSE 28 37 15 20 1018.5 1018.0 0.0
04/02:11pm 23.5 16.0 -1.4 19 11.1 SSE 28 50 15 27 1018.8 1018.3 0.0
04/02:00pm 23.9 16.8 -1.1 19 11.3 SSE 26 37 14 20 1019.0 1018.5 0.0
04/01:30pm 24.0 17.3 -1.0 19 11.3 SSE 24 35 13 19 1019.4 1018.9 0.0
04/01:00pm 22.8 16.2 -0.6 21 10.5 SSE 24 35 13 19 1019.9 1019.3 0.0
04/12:30pm 22.8 16.2 1.8 25 9.9 SE 26 35 14 19 1020.5 1019.9 0.0
04/12:00pm 21.6 14.5 1.3 26 9.4 SE 28 37 15 20 1021.0 1020.4 0.0
04/11:30am 21.2 14.5 1.5 27 9.1 SE 26 33 14 18 1021.5 1020.9 0.0
04/11:00am 19.9 13.1 0.9 28 8.6 SE 26 37 14 20 1022.1 1021.5 0.0
04/10:30am 18.3 11.1 0.4 30 7.9 SE 28 35 15 19 1022.5 1022.0 0.0
04/10:00am 17.2 9.4 -0.5 30 7.6 SE 30 35 16 19 1022.6 1022.1 0.0
04/09:30am 16.3 8.0 -0.4 32 7.2 SE 33 41 18 22 1022.3 1021.8 0.0
04/09:00am 15.3 7.1 -0.9 33 6.8 SE 32 41 17 22 1022.2 1021.7 0.0
04/08:30am 13.6 5.7 -1.9 34 6.3 SSE 30 35 16 19 1022.0 1021.4 0.0
04/08:00am 12.1 5.6 -2.5 36 5.7 SSE 22 28 12 15 1021.7 1021.1 0.0
04/07:30am 10.6 5.1 -2.4 40 5.0 SSE 17 24 9 13 1021.5 1020.9 0.0
04/07:00am 9.8 5.0 -2.5 42 4.7 SSE 13 17 7 9 1021.2 1020.6 0.0
04/06:30am 10.4 4.9 -1.9 42 4.8 SSE 17 20 9 11 1020.7 1020.1 0.0
04/06:00am 10.6 5.5 -2.1 41 4.9 SSE 15 17 8 9 1020.4 1019.8 0.0
04/05:30am 11.8 6.0 -1.7 39 5.4 S 19 22 10 12 1020.0 1019.4 0.0
04/05:00am 11.7 6.3 -1.1 41 5.1 SSE 17 20 9 11 1020.0 1019.4 0.0
04/04:30am 10.8 6.1 -1.9 41 5.0 S 13 17 7 9 1019.9 1019.3 0.0
04/04:00am 13.2 8.2 -1.2 37 5.9 SSE 15 19 8 10 1019.9 1019.3 0.0
04/03:30am 13.9 8.9 -0.9 36 6.1 SE 15 19 8 10 1019.8 1019.2 0.0
04/03:00am 14.4 9.1 -0.8 35 6.3 SE 17 20 9 11 1019.6 1019.0 0.0
04/02:30am 14.9 9.2 -0.8 34 6.6 SE 19 24 10 13 1019.7 1019.1 0.0
04/02:00am 15.5 10.2 -0.3 34 6.7 SE 17 20 9 11 1019.6 1019.0 0.0
04/01:30am 16.3 10.1 0.0 33 7.0 SSE 22 30 12 16 1019.2 1018.7 0.0
04/01:00am 17.0 10.5 0.6 33 7.2 SSE 24 30 13 16 1019.1 1018.6 0.0
04/12:30am 17.4 9.9 1.0 33 7.3 S 30 37 16 20 1018.8 1018.3 0.0
04/12:00am 18.0 10.5 1.1 32 7.6 S 30 41 16 22 1018.7 1018.2 0.0
 
Date/Time
EST
Temp
°C
App
Temp
°C
Dew
Point
Rel
Hum
%
Delta-T
°C
Wind Press
QNH
hPa
Press
MSL
hPa
Rain
since 9 am
mm
Dir
 
Spd
km/h
Gust
km/h
Spd
kts
Gust
kts
03/11:30pm 18.3 10.8 0.9 31 7.8 S 30 37 16 20 1018.8 1018.3 0.0
03/11:00pm 18.4 11.6 0.5 30 7.9 S 26 30 14 16 1019.0 1018.5 0.0
03/10:30pm 19.2 12.4 0.8 29 8.3 S 26 32 14 17 1019.0 1018.5 0.0
03/10:00pm 19.8 13.1 1.3 29 8.4 S 26 32 14 17 1018.9 1018.4 0.0
03/09:30pm 20.6 13.9 1.5 28 8.8 S 26 33 14 18 1018.8 1018.3 0.0
03/09:00pm 21.3 14.6 1.6 27 9.2 S 26 33 14 18 1018.8 1018.3 0.0
03/08:30pm 22.2 14.8 1.8 26 9.6 S 30 35 16 19 1018.6 1018.1 0.0
03/08:00pm 22.7 15.9 1.1 24 10.0 SSW 26 33 14 18 1018.2 1017.7 0.0
03/07:30pm 23.6 17.3 1.3 23 10.5 S 24 28 13 15 1017.8 1017.2 0.0
03/07:00pm 24.8 18.6 2.3 23 10.9 SSW 24 28 13 15 1017.4 1016.8 0.0
03/06:30pm 25.9 19.8 2.6 22 11.4 S 24 30 13 16 1017.1 1016.5 0.0
03/06:00pm 27.4 21.4 3.2 21 12.1 SSW 24 30 13 16 1016.7 1016.1 0.0
03/05:30pm 28.8 23.5 2.9 19 13.0 S 20 24 11 13 1016.5 1015.9 0.0
03/05:00pm 29.4 23.8 3.4 19 13.2 S 22 30 12 16 1016.3 1015.7 0.0
03/04:30pm 30.0 24.7 3.1 18 13.7 SSE 20 30 11 16 1016.2 1015.6 0.0
03/04:00pm 30.2 25.0 3.3 18 13.7 S 20 28 11 15 1016.2 1015.6 0.0
03/03:30pm 30.5 24.9 3.5 18 13.9 S 22 33 12 18 1016.2 1015.6 0.0
03/03:00pm 30.3 25.1 3.4 18 13.8 S 20 30 11 16 1016.5 1015.9 0.0
03/02:30pm 30.6 24.5 2.8 17 14.1 SSW 24 32 13 17 1016.7 1016.1 0.0
03/02:00pm 30.7 25.8 2.0 16 14.4 SSW 17 28 9 15 1017.0 1016.4 0.0
03/01:30pm 30.1 24.9 2.4 17 13.9 S 19 26 10 14 1017.4 1016.8 0.0
03/01:00pm 29.6 24.5 2.8 18 13.5 SSE 19 26 10 14 1018.0 1017.5 0.0
03/12:30pm 29.3 24.4 4.0 20 13.0 S 19 28 10 15 1018.4 1017.9 0.0
03/12:00pm 27.6 22.4 2.6 20 12.4 S 19 26 10 14 1018.8 1018.3 0.0
03/11:30am 26.5 21.2 3.1 22 11.6 S 20 28 11 15 1019.2 1018.7 0.0
03/11:00am 25.6 20.3 2.9 23 11.1 S 20 26 11 14 1019.4 1018.9 0.0
03/10:30am 24.3 19.2 3.0 25 10.4 S 19 24 10 13 1019.8 1019.2 0.0
03/10:00am 22.6 17.7 2.1 26 9.7 S 17 24 9 13 1020.1 1019.5 0.0
03/09:30am 20.7 15.2 1.6 28 8.9 S 20 24 11 13 1020.0 1019.4 0.0
03/09:00am 19.1 12.7 1.1 30 8.1 S 24 30 13 16 1019.8 1019.2 0.0
03/08:30am 17.7 12.0 0.4 31 7.6 S 20 26 11 14 1019.2 1018.7 0.0
03/08:00am 14.8 11.0 -0.9 34 6.5 S 9 13 5 7 1018.8 1018.3 0.0
03/07:30am 12.9 9.7 -0.7 39 5.6 SSE 6 9 3 5 1018.5 1018.0 0.0
03/07:00am 11.3 8.3 -1.8 40 5.2 S 4 7 2 4 1018.2 1017.7 0.0
03/06:30am 14.0 10.5 1.0 41 5.6 SE 9 13 5 7 1017.8 1017.2 0.0
03/06:00am 12.6 8.4 -1.0 39 5.5 SSE 11 13 6 7 1017.8 1017.2 0.0
03/05:30am 12.3 8.6 -0.2 42 5.2 SW 9 15 5 8 1017.3 1016.7 0.0
03/05:00am 12.3 7.1 0.1 43 5.1 WSW 17 26 9 14 1017.1 1016.5 0.0
03/04:30am 11.9 9.2 0.1 44 4.9 ENE 4 6 2 3 1016.9 1016.3 0.0
03/04:00am 12.4 9.0 -0.5 41 5.3 ENE 7 9 4 5 1016.7 1016.1 0.0
03/03:30am 13.0 9.5 1.4 45 5.0 ENE 9 11 5 6 1016.6 1016.0 0.0
03/03:00am 14.2 11.4 3.4 48 4.9 NE 7 9 4 5 1016.7 1016.1 0.0
03/02:30am 13.4 10.0 2.0 46 5.0 ENE 9 13 5 7 1016.9 1016.3 0.0
03/02:00am 15.4 11.3 2.2 41 5.9 E 13 17 7 9 1017.2 1016.6 0.0
03/01:30am 14.6 10.4 1.5 41 5.8 E 13 13 7 7 1017.6 1017.0 0.0
03/01:00am 14.9 11.5 2.1 42 5.7 ENE 9 11 5 6 1017.7 1017.1 0.0
03/12:30am 14.4 11.4 1.7 42 5.6 ESE 7 11 4 6 1017.9 1017.3 0.0
03/12:00am 17.0 15.4 2.6 38 6.6 CALM 0 0 0 0 1018.1 1017.6 0.0
 
Date/Time
EST
Temp
°C
App
Temp
°C
Dew
Point
Rel
Hum
%
Delta-T
°C
Wind Press
QNH
hPa
Press
MSL
hPa
Rain
since 9 am
mm
Dir
 
Spd
km/h
Gust
km/h
Spd
kts
Gust
kts
02/11:30pm 15.3 13.7 2.5 42 5.8 CALM 0 0 0 0 1018.2 1017.7 0.0
02/11:00pm 16.8 13.6 0.9 34 7.0 SE 7 9 4 5 1018.2 1017.7 0.0
02/10:30pm 19.1 15.7 2.0 32 7.9 SE 9 9 5 5 1018.2 1017.7 0.0
02/10:00pm 20.6 17.8 2.9 31 8.4 SSE 7 7 4 4 1018.3 1017.8 0.0
02/09:30pm 21.4 18.6 3.1 30 8.8 SSE 7 9 4 5 1018.3 1017.8 0.0
02/09:00pm 22.2 20.2 2.3 27 9.4 SSW 2 9 1 5 1018.2 1017.7 0.0
02/08:30pm 23.2 21.6 2.7 26 9.9 CALM 0 0 0 0 1018.0 1017.5 0.0
02/08:00pm 23.4 21.9 2.8 26 10.0 CALM 0 0 0 0 1017.6 1017.0 0.0
02/07:30pm 24.7 21.8 2.8 24 10.7 SSW 7 9 4 5 1017.4 1016.8 0.0
02/07:00pm 25.9 22.6 2.6 22 11.4 SW 9 11 5 6 1017.1 1016.5 0.0
02/06:30pm 27.1 24.3 2.9 21 12.0 SW 7 9 4 5 1016.9 1016.3 0.0
02/06:00pm 28.5 24.9 2.7 19 12.9 SW 11 15 6 8 1016.7 1016.1 0.0
02/05:30pm 30.2 27.0 3.3 18 13.7 SW 9 15 5 8 1016.6 1016.0 0.0
02/05:00pm 30.9 27.3 3.0 17 14.2 SW 11 19 6 10 1016.5 1015.9 0.0
02/04:30pm 30.9 28.4 4.6 19 13.8 WSW 7 15 4 8 1016.4 1015.8 0.0
02/04:00pm 30.7 28.0 3.7 18 13.9 W 7 20 4 11 1016.4 1015.8 0.0
02/03:30pm 31.2 29.1 4.1 18 14.1 NW 4 13 2 7 1016.5 1015.9 0.0
02/03:00pm 30.4 28.1 4.9 20 13.4 NNW 6 13 3 7 1016.7 1016.1 0.0
02/02:30pm 30.9 27.6 4.6 19 13.8 W 11 17 6 9 1017.1 1016.5 0.0

Other Formats:

Comma delimited format used in spreadsheet applications
http://www.bom.gov.au/fwo/IDQ60801/IDQ60801.94341.axf

JavaScript Object Notation format (JSON) in row-major order
http://www.bom.gov.au/fwo/IDQ60801/IDQ60801.94341.json